Jewell, Kansas
Current Conditions -  °F | °C
As of 12:55 AM on Sunday 26 Oct 2014 (Local Time) from KCNK Reporting Station
Clear Clear  
Wind Chill: 58°   Ceiling: Unl
Heat Index: 58°   Visibility: 9mi
Dew Point: 56°   Wind: 5mph
Humidity: 93%   Direction: 80°E
Pressure: 29.92"   Gusts: NA
Location:  39.67°N, 98.15°W
Report Text: KCNK 260555Z AUTO 08004KT 9SM CLR 14/13 A2992 RMK AO2 SLP123 T01440133 10222 20144 402830100 58012
Loading
Personal Weather Stations






























Interactive Weather Map
Tropical Storm Tracking
New forecast layout! Learn more

10-Day Weather Forecast

Advertisements
Track Severe Weather on mobile